Sloman Herakles — V2FY4 — position and weather

sailwx.info

Track history (hours):
 
Tides and Currents Weather Stations Pressure Air Temp Water Temp Dewpoint Dewpoint Depression Visibility Wind Speed Wind Dir Waves Ship Positions

Sloman Herakles

Last reported at 2014-Jul-03 03:06 UTC. Time now 2014-Jul-25 03:37 UTC.
Position N 26°15' W 078°47'.
Warning: this ship's position is 22 days out of date.

Length 145 m; draft 6.6 m.

Type: Ship (hazmat cat C). MMSI: 305851000.

Date/timePositionNaut miles runAvg speedWind from/ knotsBaromVisibWave heightAir tempDewpointWater temp
2014-Jul-03 03:06N 26°15' W 078°47'1010.8
2014-Jul-03 02:12N 26°07' W 078°42'810.4
2014-Jul-03 01:26N 26°02' W 078°34'22 4.5
2014-Jul-02 20:33N 26°11' W 078°57'1312.0
2014-Jul-02 19:28N 26°18' W 079°09'910.2
2014-Jul-02 18:33N 26°27' W 079°13'3 0.5
2014-Jul-02 12:33N 26°25' W 079°10'7 2.9
2014-Jul-02 10:09N 26°29' W 079°04'5 0.5
2014-Jul-02 00:33N 26°24' W 079°06'2 1.2
2014-Jul-01 22:33N 26°23' W 079°08'1212.0
2014-Jul-01 21:33N 26°25' W 079°21'9 7.4
2014-Jul-01 20:22N 26°33' W 079°26'8 3.0
2014-Jul-01 17:33N 26°24' W 079°27'1313.3
2014-Jul-01 16:33N 26°11' W 079°29'1413.6
2014-Jul-01 15:33N 25°58' W 079°32'6 6.3
2014-Jul-01 14:33N 25°51' W 079°32'19 9.5
2014-Jul-01 12:33N 26°10' W 079°29'1110.5
2014-Jul-01 11:33N 26°21' W 079°28'  
2014-Jun-23 11:17N 46°40' W 071°53'1013.8
2014-Jun-23 10:33N 46°34' W 072°04'1010.3
2014-Jun-23 09:33N 46°27' W 072°15'1211.7
2014-Jun-23 08:33N 46°21' W 072°30'1211.3
2014-Jun-23 07:28N 46°14' W 072°45'1513.2
2014-Jun-23 06:22N 46°05' W 073°01'911.1
2014-Jun-23 05:33N 45°59' W 073°11'1313.1
2014-Jun-23 04:33N 45°48' W 073°20'1313.0
2014-Jun-23 03:33N 45°37' W 073°30'  
Track history (hours):
 
Tides and Currents Weather Stations Pressure Air Temp Water Temp Dewpoint Dewpoint Depression Visibility Wind Speed Wind Dir Waves Ship Positions

Sloman Herakles

Last reported at 2014-Jul-03 03:06 UTC. Time now 2014-Jul-25 03:37 UTC.
Position N 26°15' W 078°47'.
Warning: this ship's position is 22 days out of date.

Length 145 m; draft 6.6 m.

Type: Ship (hazmat cat C). MMSI: 305851000.

Date/timePositionNaut miles runAvg speedWind from/ knotsBaromVisibWave heightAir tempDewpointWater temp
2014-Jul-03 03:06N 26°15' W 078°47'1010.8
2014-Jul-03 02:12N 26°07' W 078°42'810.4
2014-Jul-03 01:26N 26°02' W 078°34'22 4.5
2014-Jul-02 20:33N 26°11' W 078°57'1312.0
2014-Jul-02 19:28N 26°18' W 079°09'910.2
2014-Jul-02 18:33N 26°27' W 079°13'3 0.5
2014-Jul-02 12:33N 26°25' W 079°10'7 2.9
2014-Jul-02 10:09N 26°29' W 079°04'5 0.5
2014-Jul-02 00:33N 26°24' W 079°06'2 1.2
2014-Jul-01 22:33N 26°23' W 079°08'1212.0
2014-Jul-01 21:33N 26°25' W 079°21'9 7.4
2014-Jul-01 20:22N 26°33' W 079°26'8 3.0
2014-Jul-01 17:33N 26°24' W 079°27'1313.3
2014-Jul-01 16:33N 26°11' W 079°29'1413.6
2014-Jul-01 15:33N 25°58' W 079°32'6 6.3
2014-Jul-01 14:33N 25°51' W 079°32'19 9.5
2014-Jul-01 12:33N 26°10' W 079°29'1110.5
2014-Jul-01 11:33N 26°21' W 079°28'  
2014-Jun-23 11:17N 46°40' W 071°53'1013.8
2014-Jun-23 10:33N 46°34' W 072°04'1010.3
2014-Jun-23 09:33N 46°27' W 072°15'1211.7
2014-Jun-23 08:33N 46°21' W 072°30'1211.3
2014-Jun-23 07:28N 46°14' W 072°45'1513.2
2014-Jun-23 06:22N 46°05' W 073°01'911.1
2014-Jun-23 05:33N 45°59' W 073°11'1313.1
2014-Jun-23 04:33N 45°48' W 073°20'1313.0
2014-Jun-23 03:33N 45°37' W 073°30'  

Dump ship's entire track history